Time;durP1;ratioP1;P1;durP2;ratioP2;P2;SDS_P1;SDS_P2;PMS_P1;PMS_P2;Temp;Humidity;BMP_temperature;BMP_pressure;BME280_temperature;BME280_humidity;BME280_pressure;Samples;Min_cycle;Max_cycle;Signal;HPM_P1;HPM_P2
2022/06/25 00:00:27;;;;;;;2.87;2.27;;;;;25.60;99859.00;;;;2079579;28;20217;-49
2022/06/25 00:01:28;;;;;;;2.23;2.03;;;;;25.60;99857.00;;;;2076138;28;20693;-49
2022/06/25 00:02:28;;;;;;;5.57;2.40;;;;;25.60;99854.00;;;;2072106;28;20218;-50
2022/06/25 00:03:29;;;;;;;4.90;2.23;;;;;25.60;99861.00;;;;2072245;28;20291;-49
2022/06/25 00:05:48;;;;;;;2.22;2.03;;;;;25.60;99860.00;;;;2071826;28;20234;-50
2022/06/25 00:06:48;;;;;;;2.00;1.80;;;;;25.60;99874.00;;;;2071405;28;20237;-50
2022/06/25 00:07:48;;;;;;;2.53;2.20;;;;;25.60;99858.00;;;;2070567;28;20214;-50
2022/06/25 00:08:50;;;;;;;2.50;1.97;;;;;25.60;99868.00;;;;2072063;28;20214;-50
2022/06/25 00:09:50;;;;;;;3.20;2.15;;;;;25.60;99858.00;;;;2072214;28;20552;-50
2022/06/25 00:10:52;;;;;;;2.93;2.20;;;;;25.60;99867.00;;;;2072042;28;20249;-49
2022/06/25 00:13:11;;;;;;;2.63;1.58;;;;;25.60;99866.00;;;;2071950;28;20464;-49
2022/06/25 00:14:11;;;;;;;4.40;2.37;;;;;25.60;99862.00;;;;2071974;28;20214;-49
2022/06/25 00:15:11;;;;;;;2.57;2.30;;;;;25.60;99860.00;;;;2072028;28;20210;-50
2022/06/25 00:16:12;;;;;;;2.77;2.27;;;;;25.60;99867.00;;;;2072157;28;20226;-50
2022/06/25 00:17:12;;;;;;;3.00;1.80;;;;;25.60;99861.00;;;;2071023;28;20206;-49
2022/06/25 00:18:13;;;;;;;4.40;2.17;;;;;25.60;99865.00;;;;2071113;28;20230;-49
2022/06/25 00:19:13;;;;;;;2.87;2.40;;;;;25.60;99862.00;;;;2072091;28;20222;-49
2022/06/25 00:20:13;;;;;;;2.60;1.80;;;;;25.60;99870.00;;;;2072106;28;20832;-49
2022/06/25 00:21:14;;;;;;;2.37;2.03;;;;;25.60;99861.00;;;;2072073;28;20245;-50
2022/06/25 00:22:14;;;;;;;1.90;1.67;;;;;25.60;99867.00;;;;2072082;28;20297;-50
2022/06/25 00:23:14;;;;;;;2.73;1.80;;;;;25.60;99858.00;;;;2071703;28;20210;-49
2022/06/25 00:24:18;;;;;;;2.10;1.60;;;;;25.60;99858.00;;;;2071959;28;20218;-49
2022/06/25 00:25:18;;;;;;;4.00;2.10;;;;;25.60;99857.00;;;;2071830;28;20309;-49
2022/06/25 00:26:18;;;;;;;2.10;1.93;;;;;25.60;99860.00;;;;2071837;28;20457;-50
2022/06/25 00:27:19;;;;;;;2.30;1.60;;;;;25.20;99878.00;;;;2070544;28;20214;-49
2022/06/25 00:28:19;;;;;;;2.90;1.80;;;;;25.60;99861.00;;;;2071157;28;20698;-50
2022/06/25 00:29:19;;;;;;;3.90;2.00;;;;;25.60;99865.00;;;;2071597;28;20262;-50
2022/06/25 00:30:20;;;;;;;3.13;2.13;;;;;25.60;99858.00;;;;2071748;28;20293;-50
2022/06/25 00:31:20;;;;;;;2.43;1.67;;;;;25.60;99865.00;;;;2073291;28;20215;-50
2022/06/25 00:32:20;;;;;;;3.83;2.33;;;;;25.60;99869.00;;;;2079635;28;20218;-50
2022/06/25 00:33:21;;;;;;;3.40;1.87;;;;;25.60;99876.00;;;;2080102;28;20245;-50
2022/06/25 00:34:21;;;;;;;2.13;1.90;;;;;25.60;99868.00;;;;2079733;28;20213;-51
2022/06/25 00:35:21;;;;;;;3.20;2.07;;;;;25.60;99869.00;;;;2079951;28;20213;-50
2022/06/25 00:36:22;;;;;;;2.53;1.50;;;;;25.60;99877.00;;;;2079614;28;20209;-50
2022/06/25 00:37:22;;;;;;;2.80;1.80;;;;;25.60;99877.00;;;;2079016;28;20894;-50
2022/06/25 00:38:22;;;;;;;2.63;2.20;;;;;25.60;99879.00;;;;2079799;28;20679;-50
2022/06/25 00:39:23;;;;;;;2.27;1.70;;;;;25.60;99877.00;;;;2080142;28;20217;-50
2022/06/25 00:40:23;;;;;;;2.07;1.83;;;;;25.60;99876.00;;;;2078523;28;20271;-50
2022/06/25 00:41:23;;;;;;;2.43;1.60;;;;;25.60;99882.00;;;;2079832;28;20213;-50
2022/06/25 00:42:24;;;;;;;2.53;1.90;;;;;25.60;99878.00;;;;2080018;28;20213;-50
2022/06/25 00:43:24;;;;;;;2.93;2.10;;;;;25.60;99876.00;;;;2079671;28;20216;-50
2022/06/25 00:44:25;;;;;;;2.23;1.60;;;;;25.60;99881.00;;;;2079959;28;20304;-50
2022/06/25 00:45:26;;;;;;;2.65;2.20;;;;;25.60;99883.00;;;;2070646;28;20765;-49
2022/06/25 00:46:26;;;;;;;2.03;1.73;;;;;25.60;99884.00;;;;2071105;28;20216;-50
2022/06/25 00:47:26;;;;;;;2.00;1.70;;;;;25.60;99878.00;;;;2078524;28;20590;-50
2022/06/25 00:48:27;;;;;;;2.23;1.90;;;;;25.60;99880.00;;;;2079652;28;20648;-50
2022/06/25 00:49:28;;;;;;;2.10;1.80;;;;;25.60;99882.00;;;;2079616;28;20218;-50
2022/06/25 00:50:28;;;;;;;2.77;1.90;;;;;25.60;99884.00;;;;2077762;28;20607;-50
2022/06/25 00:51:28;;;;;;;2.53;1.60;;;;;25.60;99869.00;;;;2079369;28;20452;-50
2022/06/25 00:52:33;;;;;;;1.80;1.60;;;;;25.60;99884.00;;;;2070694;28;20268;-50
2022/06/25 00:53:34;;;;;;;2.28;1.65;;;;;25.60;99890.00;;;;2071325;28;20447;-49
2022/06/25 00:54:36;;;;;;;2.60;1.50;;;;;25.60;99888.00;;;;2079538;28;20259;-50
2022/06/25 00:55:37;;;;;;;2.10;1.50;;;;;25.60;99892.00;;;;2078911;28;20248;-50
2022/06/25 00:56:39;;;;;;;2.07;1.77;;;;;25.60;99892.00;;;;2078689;28;20205;-49
2022/06/25 00:57:40;;;;;;;3.95;1.85;;;;;25.60;99888.00;;;;2069451;28;20449;-52
2022/06/25 00:58:42;;;;;;;3.05;1.60;;;;;25.60;99895.00;;;;2070850;28;20668;-50
2022/06/25 00:59:43;;;;;;;3.60;1.67;;;;;25.60;99885.00;;;;2073936;28;20227;-50
2022/06/25 01:00:43;;;;;;;3.13;2.23;;;;;25.60;99898.00;;;;2086767;28;20573;-50
2022/06/25 01:01:43;;;;;;;1.50;1.40;;;;;25.60;99892.00;;;;2083015;28;20271;-50
2022/06/25 01:02:44;;;;;;;3.10;1.97;;;;;25.60;99900.00;;;;2079484;28;20213;-50
2022/06/25 01:03:45;;;;;;;1.83;1.53;;;;;25.60;99917.00;;;;2079483;28;20258;-49
2022/06/25 01:04:45;;;;;;;2.60;1.80;;;;;25.60;99894.00;;;;2078473;28;20696;-52
2022/06/25 01:05:45;;;;;;;1.97;1.70;;;;;25.60;99905.00;;;;2070237;28;20659;-52
2022/06/25 01:06:46;;;;;;;2.23;1.60;;;;;25.60;99899.00;;;;2070493;28;20222;-51
2022/06/25 01:07:47;;;;;;;2.63;1.80;;;;;25.60;99890.00;;;;2081525;28;20221;-51
2022/06/25 01:08:47;;;;;;;2.80;1.60;;;;;25.60;99900.00;;;;2070558;28;20214;-51
2022/06/25 01:09:48;;;;;;;3.67;1.73;;;;;25.60;99905.00;;;;2070535;28;20453;-51
2022/06/25 01:10:49;;;;;;;2.80;1.83;;;;;25.60;99904.00;;;;2070047;28;20225;-50
2022/06/25 01:11:49;;;;;;;2.67;1.67;;;;;25.60;99890.00;;;;2075405;28;20532;-50
2022/06/25 01:12:49;;;;;;;1.97;1.53;;;;;25.60;99916.00;;;;2079064;28;20218;-50
2022/06/25 01:13:52;;;;;;;2.40;1.93;;;;;25.60;99908.00;;;;2078846;28;20224;-51
2022/06/25 01:15:07;;;;;;;2.88;1.45;;;;;25.60;99913.00;;;;2066265;28;20250;-50
2022/06/25 01:16:08;;;;;;;3.38;1.83;;;;;25.60;99917.00;;;;2073835;28;20205;-50
2022/06/25 01:17:08;;;;;;;4.30;1.67;;;;;25.60;99915.00;;;;2079223;28;20237;-49
2022/06/25 01:18:09;;;;;;;1.83;1.50;;;;;25.60;99918.00;;;;2078315;28;20221;-49
2022/06/25 01:19:10;;;;;;;2.53;1.40;;;;;25.50;99916.00;;;;2078511;28;20292;-49
2022/06/25 01:20:11;;;;;;;1.80;1.60;;;;;25.60;99913.00;;;;2075339;28;20241;-49
2022/06/25 01:21:11;;;;;;;1.63;1.53;;;;;25.60;99916.00;;;;2078962;28;20259;-49
2022/06/25 01:22:12;;;;;;;2.13;1.70;;;;;25.50;99920.00;;;;2075934;28;20214;-50
2022/06/25 01:23:12;;;;;;;2.83;1.50;;;;;25.60;99922.00;;;;2078729;28;20214;-50
2022/06/25 01:24:13;;;;;;;3.03;1.70;;;;;25.60;99927.00;;;;2079431;28;20271;-49
2022/06/25 01:25:13;;;;;;;2.40;1.70;;;;;25.60;99919.00;;;;2079384;28;20797;-49
2022/06/25 01:26:13;;;;;;;1.90;1.40;;;;;25.60;99922.00;;;;2079310;28;20275;-55
2022/06/25 01:27:14;;;;;;;3.40;1.67;;;;;25.60;99918.00;;;;2079084;28;20218;-50
2022/06/25 01:28:14;;;;;;;2.40;1.57;;;;;25.60;99923.00;;;;2078408;28;20313;-50
2022/06/25 01:29:15;;;;;;;1.90;1.70;;;;;25.50;99927.00;;;;2070986;28;20214;-49
2022/06/25 01:30:15;;;;;;;1.83;1.40;;;;;25.60;99931.00;;;;2078056;28;20224;-50
2022/06/25 01:31:15;;;;;;;2.57;1.83;;;;;25.60;99926.00;;;;2074362;28;20215;-50
2022/06/25 01:32:16;;;;;;;2.63;1.73;;;;;25.60;99930.00;;;;2071626;28;20234;-51
2022/06/25 01:33:16;;;;;;;2.30;1.70;;;;;25.50;99927.00;;;;2071293;28;20579;-51
2022/06/25 01:34:16;;;;;;;2.67;1.50;;;;;25.50;99919.00;;;;2071883;28;20249;-50
2022/06/25 01:35:17;;;;;;;2.07;1.60;;;;;25.50;99922.00;;;;2079375;28;20206;-50
2022/06/25 01:36:17;;;;;;;3.33;1.60;;;;;25.60;99921.00;;;;2079622;28;20206;-50
2022/06/25 01:37:17;;;;;;;3.83;2.20;;;;;25.50;99931.00;;;;2078826;28;20237;-49
2022/06/25 01:38:18;;;;;;;1.73;1.63;;;;;25.60;99927.00;;;;2079068;28;20244;-49
2022/06/25 01:39:18;;;;;;;2.10;1.60;;;;;25.60;99928.00;;;;2079525;28;20210;-50
2022/06/25 01:40:18;;;;;;;2.37;1.50;;;;;25.50;99931.00;;;;2079544;28;20248;-49
2022/06/25 01:41:19;;;;;;;1.73;1.50;;;;;25.60;99927.00;;;;2079507;28;20214;-49
2022/06/25 01:43:39;;;;;;;1.80;1.52;;;;;25.60;99935.00;;;;2079424;28;20213;-49
2022/06/25 01:44:39;;;;;;;2.15;1.50;;;;;25.60;99936.00;;;;2079451;28;20213;-50
2022/06/25 01:45:41;;;;;;;1.63;1.50;;;;;25.60;99928.00;;;;2079126;28;20213;-49
2022/06/25 01:46:41;;;;;;;2.75;1.60;;;;;25.60;99933.00;;;;2079565;28;20217;-49
2022/06/25 01:47:42;;;;;;;2.50;1.60;;;;;25.60;99934.00;;;;2078628;28;20210;-50
2022/06/25 01:48:42;;;;;;;2.63;1.80;;;;;25.60;99938.00;;;;2079386;28;20628;-49
2022/06/25 01:49:42;;;;;;;2.20;1.70;;;;;25.60;99942.00;;;;2079631;28;20569;-50
2022/06/25 01:50:43;;;;;;;3.40;1.67;;;;;25.60;99935.00;;;;2079390;28;20237;-49
2022/06/25 01:51:43;;;;;;;2.10;1.50;;;;;25.60;99938.00;;;;2079308;28;20228;-49
2022/06/25 01:52:45;;;;;;;2.10;1.80;;;;;25.50;99915.00;;;;2079464;28;20210;-49
2022/06/25 01:53:45;;;;;;;3.20;1.70;;;;;25.60;99936.00;;;;2079449;28;20217;-49
2022/06/25 01:54:46;;;;;;;3.23;1.77;;;;;25.60;99939.00;;;;2079320;28;20217;-50
2022/06/25 01:55:46;;;;;;;2.73;1.53;;;;;25.60;99936.00;;;;2079480;28;20205;-50
2022/06/25 01:56:47;;;;;;;3.20;1.80;;;;;25.50;99936.00;;;;2072086;28;20214;-51
2022/06/25 01:57:47;;;;;;;3.53;1.63;;;;;25.50;99944.00;;;;2078436;28;20629;-50
2022/06/25 01:58:48;;;;;;;1.70;1.47;;;;;25.60;99938.00;;;;2079524;28;20913;-50
2022/06/25 01:59:48;;;;;;;2.00;1.80;;;;;25.50;99943.00;;;;2078818;28;20884;-49
2022/06/25 02:00:48;;;;;;;4.00;2.00;;;;;25.50;99944.00;;;;2073590;28;20641;-51
2022/06/25 02:01:49;;;;;;;1.43;1.33;;;;;25.50;99947.00;;;;2086073;28;20746;-53
2022/06/25 02:02:50;;;;;;;1.50;1.23;;;;;25.50;99946.00;;;;2083229;28;20782;-52
2022/06/25 02:03:50;;;;;;;3.57;2.33;;;;;25.50;99953.00;;;;2079281;28;20936;-49
2022/06/25 02:04:51;;;;;;;2.20;1.70;;;;;25.50;99951.00;;;;2079237;28;20463;-50
2022/06/25 02:05:57;;;;;;;2.37;1.80;;;;;25.50;99948.00;;;;2078934;28;20895;-49
2022/06/25 02:06:57;;;;;;;2.33;1.90;;;;;25.60;99946.00;;;;2078593;28;20217;-50
2022/06/25 02:07:57;;;;;;;2.30;1.90;;;;;25.50;99947.00;;;;2077499;28;20289;-49
2022/06/25 02:08:58;;;;;;;2.67;1.60;;;;;25.50;99943.00;;;;2077997;28;20214;-50
2022/06/25 02:09:58;;;;;;;4.40;1.80;;;;;25.50;99949.00;;;;2078717;28;20201;-50
2022/06/25 02:11:00;;;;;;;2.53;1.60;;;;;25.60;99952.00;;;;2078936;28;20719;-49
2022/06/25 02:12:00;;;;;;;2.00;1.80;;;;;25.50;99953.00;;;;2079198;28;20259;-49
2022/06/25 02:13:00;;;;;;;2.90;1.47;;;;;25.50;99962.00;;;;2079199;28;20614;-49
2022/06/25 02:14:01;;;;;;;3.63;1.60;;;;;25.50;99947.00;;;;2079426;28;20697;-49
2022/06/25 02:15:02;;;;;;;1.40;1.30;;;;;25.50;99959.00;;;;2079183;28;20205;-49
2022/06/25 02:16:02;;;;;;;1.90;1.50;;;;;25.60;99952.00;;;;2079047;28;20201;-49
2022/06/25 02:17:03;;;;;;;2.30;1.80;;;;;25.50;99952.00;;;;2075418;28;20530;-50
2022/06/25 02:18:03;;;;;;;1.93;1.60;;;;;25.50;99957.00;;;;2078125;28;21043;-49
2022/06/25 02:19:04;;;;;;;2.50;1.70;;;;;25.50;99962.00;;;;2079366;28;20272;-50
2022/06/25 02:20:05;;;;;;;3.33;1.90;;;;;25.50;99955.00;;;;2079349;28;20285;-50
2022/06/25 02:21:05;;;;;;;2.77;1.53;;;;;25.50;99954.00;;;;2078826;28;20206;-50
2022/06/25 02:22:05;;;;;;;3.07;1.67;;;;;25.50;99951.00;;;;2071263;28;20210;-51
2022/06/25 02:23:06;;;;;;;2.30;1.70;;;;;25.50;99958.00;;;;2072823;28;20218;-51
2022/06/25 02:24:07;;;;;;;3.33;1.83;;;;;25.50;99954.00;;;;2075543;28;20216;-50
2022/06/25 02:25:07;;;;;;;3.40;1.80;;;;;25.50;99958.00;;;;2078621;28;20445;-50
2022/06/25 02:26:07;;;;;;;3.10;2.30;;;;;25.50;99963.00;;;;2079081;28;20271;-50
2022/06/25 02:27:08;;;;;;;2.13;1.87;;;;;25.50;99948.00;;;;2075078;28;20245;-50
2022/06/25 02:28:09;;;;;;;2.83;2.00;;;;;25.50;99960.00;;;;2075313;28;20217;-50
2022/06/25 02:29:09;;;;;;;3.13;1.77;;;;;25.50;99956.00;;;;2078733;28;20210;-50
2022/06/25 02:30:09;;;;;;;2.07;1.70;;;;;25.50;99951.00;;;;2079399;28;20573;-50
2022/06/25 02:31:10;;;;;;;6.07;2.23;;;;;25.50;99955.00;;;;2079037;28;20562;-50
2022/06/25 02:32:10;;;;;;;5.00;2.13;;;;;25.50;99963.00;;;;2079688;28;20214;-49
2022/06/25 02:33:12;;;;;;;2.23;1.87;;;;;25.50;99957.00;;;;2079105;28;20214;-50
2022/06/25 02:34:12;;;;;;;3.05;1.83;;;;;25.50;99962.00;;;;2079056;28;20697;-50
2022/06/25 02:35:12;;;;;;;4.07;2.17;;;;;25.50;99963.00;;;;2078551;28;20213;-50
2022/06/25 02:36:13;;;;;;;3.77;2.10;;;;;25.50;99966.00;;;;2079101;28;20254;-50
2022/06/25 02:37:13;;;;;;;6.07;2.10;;;;;25.50;99962.00;;;;2078860;28;20237;-49
2022/06/25 02:38:13;;;;;;;2.83;1.80;;;;;25.50;99962.00;;;;2078279;28;20218;-50
2022/06/25 02:39:14;;;;;;;2.80;1.77;;;;;25.50;99968.00;;;;2079224;28;20224;-49
2022/06/25 02:40:14;;;;;;;3.23;2.23;;;;;25.50;99965.00;;;;2077520;28;20209;-50
2022/06/25 02:41:14;;;;;;;4.50;1.87;;;;;25.50;99968.00;;;;2078960;28;21240;-49
2022/06/25 02:42:15;;;;;;;3.77;2.13;;;;;25.50;99962.00;;;;2078333;28;20704;-49
2022/06/25 02:43:15;;;;;;;4.60;2.70;;;;;25.50;99972.00;;;;2070020;28;20249;-50
2022/06/25 02:44:16;;;;;;;3.30;1.73;;;;;25.50;99967.00;;;;2078523;28;20232;-50
2022/06/25 02:45:16;;;;;;;3.10;2.17;;;;;25.50;99970.00;;;;2078983;28;20468;-50
2022/06/25 02:46:17;;;;;;;4.30;2.50;;;;;25.50;99973.00;;;;2078949;28;20256;-50
2022/06/25 02:47:17;;;;;;;3.57;2.47;;;;;25.50;99971.00;;;;2078293;28;20219;-51
2022/06/25 02:48:17;;;;;;;5.87;2.93;;;;;25.50;99968.00;;;;2073247;28;20210;-50
2022/06/25 02:49:18;;;;;;;4.00;2.33;;;;;25.50;99972.00;;;;2070244;28;20253;-51
2022/06/25 02:50:18;;;;;;;4.80;2.37;;;;;25.50;99974.00;;;;2073869;28;20635;-50
2022/06/25 02:51:18;;;;;;;5.47;2.57;;;;;25.50;99976.00;;;;2078974;28;20666;-50
2022/06/25 02:52:19;;;;;;;3.90;2.27;;;;;25.50;99973.00;;;;2079116;28;20229;-49
2022/06/25 02:53:19;;;;;;;4.10;2.50;;;;;25.50;99979.00;;;;2078941;28;20217;-49
2022/06/25 02:54:19;;;;;;;3.40;2.87;;;;;25.50;99981.00;;;;2078813;28;20217;-50
2022/06/25 02:58:54;;;;;;;5.63;2.60;;;;;25.50;99977.00;;;;2078581;28;20767;-49
2022/06/25 02:59:20;;;;;;;5.03;2.95;;;;;25.50;99987.00;;;;2061426;28;20203;-50
2022/06/25 03:00:20;;;;;;;5.03;2.53;;;;;25.50;99980.00;;;;2068851;28;20451;-49
2022/06/25 03:01:25;;;;;;;3.97;2.57;;;;;25.50;99980.00;;;;2070660;28;20210;-49
2022/06/25 03:02:25;;;;;;;4.60;2.20;;;;;25.50;99985.00;;;;2070816;28;20237;-49
2022/06/25 03:03:26;;;;;;;3.00;2.13;;;;;25.50;99995.00;;;;2070886;28;20242;-50
2022/06/25 03:04:26;;;;;;;2.50;2.30;;;;;25.50;99996.00;;;;2070770;28;20678;-49
2022/06/25 03:05:26;;;;;;;3.03;2.20;;;;;25.50;99992.00;;;;2070749;28;20635;-49
2022/06/25 03:06:27;;;;;;;3.50;2.70;;;;;25.50;99996.00;;;;2070419;28;20226;-49
2022/06/25 03:07:27;;;;;;;3.30;2.37;;;;;25.50;99992.00;;;;2069656;28;20218;-49
2022/06/25 03:08:28;;;;;;;4.17;2.70;;;;;25.50;99996.00;;;;2070803;28;20694;-50
2022/06/25 03:09:28;;;;;;;4.93;2.60;;;;;25.50;99996.00;;;;2070566;28;20666;-50
2022/06/25 03:10:28;;;;;;;4.20;2.53;;;;;25.50;99989.00;;;;2070837;28;20213;-50
2022/06/25 03:11:29;;;;;;;3.60;2.63;;;;;25.50;99991.00;;;;2070712;28;20206;-49
2022/06/25 03:12:29;;;;;;;6.70;3.20;;;;;25.50;99993.00;;;;2069985;28;20301;-49
2022/06/25 03:13:32;;;;;;;4.60;2.23;;;;;25.10;99997.00;;;;2070081;28;20218;-49
2022/06/25 03:14:33;;;;;;;3.65;2.10;;;;;25.50;100001.00;;;;2070327;28;20300;-49
2022/06/25 03:15:33;;;;;;;5.27;2.53;;;;;25.50;99996.00;;;;2070717;28;20234;-49
2022/06/25 03:16:33;;;;;;;4.00;2.27;;;;;25.50;100001.00;;;;2070873;28;20973;-49
2022/06/25 03:17:34;;;;;;;4.93;2.23;;;;;25.50;100002.00;;;;2070019;28;20702;-50
2022/06/25 03:18:34;;;;;;;3.73;2.23;;;;;25.50;100004.00;;;;2070804;28;20213;-50
2022/06/25 03:19:35;;;;;;;3.73;2.53;;;;;25.50;100002.00;;;;2070375;28;20245;-50
2022/06/25 03:20:35;;;;;;;2.70;2.27;;;;;25.50;100011.00;;;;2070659;28;20802;-49
2022/06/25 03:21:36;;;;;;;3.80;2.47;;;;;25.50;99993.00;;;;2069874;28;20340;-49
2022/06/25 03:22:36;;;;;;;6.30;2.77;;;;;25.50;100003.00;;;;2069864;28;20376;-50
2022/06/25 03:23:36;;;;;;;2.77;2.40;;;;;25.50;100004.00;;;;2070532;28;20252;-49
2022/06/25 03:24:37;;;;;;;3.53;2.30;;;;;25.50;99999.00;;;;2070497;28;20210;-49
2022/06/25 03:25:37;;;;;;;4.70;2.40;;;;;25.50;100005.00;;;;2070441;28;20288;-49
2022/06/25 03:26:37;;;;;;;3.53;2.40;;;;;25.50;100006.00;;;;2068798;28;20225;-49
2022/06/25 03:27:38;;;;;;;3.70;2.10;;;;;25.50;99996.00;;;;2069464;28;20210;-49
2022/06/25 03:28:38;;;;;;;3.60;1.90;;;;;25.50;99999.00;;;;2070068;28;20582;-49
2022/06/25 03:29:38;;;;;;;2.47;2.10;;;;;25.50;99998.00;;;;2070610;28;20217;-48
2022/06/25 03:30:39;;;;;;;4.00;2.30;;;;;25.50;100003.00;;;;2070573;28;20222;-50
2022/06/25 03:31:39;;;;;;;4.40;2.20;;;;;25.50;100000.00;;;;2070461;28;20241;-48
2022/06/25 03:32:40;;;;;;;4.70;2.20;;;;;25.50;99997.00;;;;2070503;28;20210;-49
2022/06/25 03:33:40;;;;;;;4.20;2.20;;;;;25.50;100006.00;;;;2070621;28;20234;-49
2022/06/25 03:34:40;;;;;;;2.60;2.20;;;;;25.50;99997.00;;;;2070643;28;20670;-48
2022/06/25 03:35:41;;;;;;;3.53;2.10;;;;;25.50;100002.00;;;;2070396;28;20218;-49
2022/06/25 03:36:41;;;;;;;2.80;1.80;;;;;25.50;100002.00;;;;2070457;28;20207;-49
2022/06/25 03:37:41;;;;;;;2.50;2.10;;;;;25.50;99997.00;;;;2068811;28;20264;-49
2022/06/25 03:38:42;;;;;;;3.10;1.87;;;;;25.50;100001.00;;;;2069603;28;20292;-49
2022/06/25 03:39:42;;;;;;;3.60;2.00;;;;;25.50;99999.00;;;;2073356;28;20578;-49
2022/06/25 03:40:42;;;;;;;2.27;1.90;;;;;25.50;99998.00;;;;2078705;28;21090;-49
2022/06/25 03:41:43;;;;;;;3.63;1.63;;;;;25.50;100005.00;;;;2078306;28;20213;-49
2022/06/25 03:42:43;;;;;;;3.63;2.30;;;;;25.50;100000.00;;;;2077856;28;20220;-49
2022/06/25 03:43:44;;;;;;;3.00;2.00;;;;;25.50;100002.00;;;;2077875;28;20696;-49
2022/06/25 03:44:44;;;;;;;4.10;2.30;;;;;25.50;100002.00;;;;2075920;28;20217;-49
2022/06/25 03:45:44;;;;;;;4.40;2.37;;;;;25.50;100005.00;;;;2078647;28;20281;-49
2022/06/25 03:46:45;;;;;;;4.23;2.30;;;;;25.50;100009.00;;;;2078719;28;20221;-49
2022/06/25 03:47:51;;;;;;;3.63;2.00;;;;;25.50;100010.00;;;;2077720;28;20236;-49
2022/06/25 03:48:51;;;;;;;2.25;1.80;;;;;25.50;100007.00;;;;2078567;28;20266;-49
2022/06/25 03:49:53;;;;;;;2.47;1.77;;;;;25.50;100009.00;;;;2078311;28;20213;-49
2022/06/25 03:50:54;;;;;;;3.92;2.00;;;;;25.50;100016.00;;;;2078661;28;20210;-49
2022/06/25 03:51:54;;;;;;;3.13;2.30;;;;;25.50;100007.00;;;;2078704;28;21128;-49
2022/06/25 03:52:54;;;;;;;2.80;1.90;;;;;25.50;100007.00;;;;2078558;28;20205;-49
2022/06/25 03:53:55;;;;;;;2.10;1.77;;;;;25.50;100004.00;;;;2078314;28;20306;-50
2022/06/25 03:54:55;;;;;;;3.80;2.00;;;;;25.50;100010.00;;;;2078351;28;20213;-49
2022/06/25 03:55:55;;;;;;;3.80;2.00;;;;;25.50;100015.00;;;;2078737;28;20217;-49
2022/06/25 03:56:56;;;;;;;2.90;2.27;;;;;25.50;100013.00;;;;2078268;28;20271;-49
2022/06/25 03:57:56;;;;;;;3.40;2.10;;;;;25.50;100015.00;;;;2076672;28;20297;-49
2022/06/25 03:58:56;;;;;;;3.73;2.20;;;;;25.50;100018.00;;;;2077572;28;20319;-50
2022/06/25 03:59:57;;;;;;;3.97;2.43;;;;;25.50;100018.00;;;;2077400;28;21299;-49
2022/06/25 04:00:57;;;;;;;3.23;1.87;;;;;25.50;100022.00;;;;2078251;28;20221;-49
2022/06/25 04:01:57;;;;;;;3.97;2.10;;;;;25.50;100017.00;;;;2078170;28;20214;-49
2022/06/25 04:02:58;;;;;;;2.20;1.93;;;;;25.50;100021.00;;;;2078158;28;20213;-49
2022/06/25 04:03:59;;;;;;;2.50;1.70;;;;;25.50;100022.00;;;;2078245;28;20251;-49
2022/06/25 04:05:00;;;;;;;2.67;1.80;;;;;25.50;100019.00;;;;2077966;28;20210;-49
2022/06/25 04:06:00;;;;;;;2.20;2.00;;;;;25.50;100024.00;;;;2078632;28;20229;-49
2022/06/25 04:07:00;;;;;;;2.87;1.63;;;;;25.50;100028.00;;;;2078272;28;20213;-49
2022/06/25 04:08:01;;;;;;;4.57;1.90;;;;;25.50;100022.00;;;;2077090;28;20213;-49
2022/06/25 04:09:01;;;;;;;2.60;2.20;;;;;25.50;100026.00;;;;2078060;28;20638;-49
2022/06/25 04:10:01;;;;;;;2.70;1.80;;;;;25.50;100020.00;;;;2078180;28;20585;-49
2022/06/25 04:11:02;;;;;;;2.13;1.70;;;;;25.50;100024.00;;;;2077907;28;20209;-50
2022/06/25 04:12:02;;;;;;;1.53;1.43;;;;;25.50;100022.00;;;;2078572;28;20217;-50
2022/06/25 04:13:03;;;;;;;2.20;2.00;;;;;25.50;100023.00;;;;2078467;28;20209;-49
2022/06/25 04:14:03;;;;;;;3.10;2.00;;;;;25.50;100022.00;;;;2078503;28;20238;-49
2022/06/25 04:15:04;;;;;;;2.77;1.67;;;;;25.50;100027.00;;;;2078536;28;20232;-49
2022/06/25 04:16:04;;;;;;;1.90;1.50;;;;;25.50;100029.00;;;;2078314;28;20218;-50
2022/06/25 04:17:05;;;;;;;2.83;1.83;;;;;25.50;100023.00;;;;2078454;28;20831;-49
2022/06/25 04:18:05;;;;;;;1.97;1.37;;;;;25.50;100026.00;;;;2077925;28;20581;-50
2022/06/25 04:19:06;;;;;;;2.87;1.70;;;;;25.50;100027.00;;;;2070458;28;20349;-50
2022/06/25 04:20:06;;;;;;;2.00;1.80;;;;;25.50;100022.00;;;;2070245;28;20225;-49
2022/06/25 04:21:07;;;;;;;2.80;1.90;;;;;25.50;100030.00;;;;2070408;28;20336;-50
2022/06/25 04:22:10;;;;;;;2.60;1.80;;;;;25.50;100025.00;;;;2070314;28;20272;-50
2022/06/25 04:23:10;;;;;;;2.40;1.83;;;;;25.50;100031.00;;;;2069258;28;20648;-55
2022/06/25 04:24:13;;;;;;;2.83;1.83;;;;;25.50;100035.00;;;;2070496;28;20694;-51
2022/06/25 04:25:13;;;;;;;2.25;1.85;;;;;25.50;100040.00;;;;2070308;28;20728;-49
2022/06/25 04:26:14;;;;;;;2.20;1.80;;;;;25.40;100044.00;;;;2070263;28;20222;-50
2022/06/25 04:29:03;;;;;;;4.17;1.57;;;;;25.50;100045.00;;;;2070320;28;20214;-50
2022/06/25 04:29:53;;;;;;;1.73;1.42;;;;;25.50;100038.00;;;;2066597;28;20205;-50
2022/06/25 04:30:54;;;;;;;2.10;1.70;;;;;25.50;100038.00;;;;2070523;28;20210;-50
2022/06/25 04:31:54;;;;;;;2.17;1.90;;;;;25.50;100039.00;;;;2076703;28;20286;-50
2022/06/25 04:32:54;;;;;;;1.60;1.50;;;;;25.50;100037.00;;;;2077882;28;20228;-50
2022/06/25 04:33:55;;;;;;;3.23;1.63;;;;;25.50;100034.00;;;;2077927;28;20213;-49
2022/06/25 04:34:55;;;;;;;2.20;1.60;;;;;25.50;100035.00;;;;2078367;28;21039;-50
2022/06/25 04:35:55;;;;;;;4.10;1.83;;;;;25.50;100037.00;;;;2076223;28;20697;-50
2022/06/25 04:36:56;;;;;;;1.90;1.70;;;;;25.50;100037.00;;;;2077197;28;20612;-50
2022/06/25 04:37:56;;;;;;;4.20;1.87;;;;;25.50;100033.00;;;;2075228;28;20789;-50
2022/06/25 04:38:56;;;;;;;2.00;1.90;;;;;25.50;99876.00;;;;2078626;28;20563;-50
2022/06/25 04:39:57;;;;;;;2.00;1.70;;;;;25.50;100034.00;;;;2079614;28;20249;-50
2022/06/25 04:40:57;;;;;;;2.10;1.63;;;;;25.50;100038.00;;;;2079527;28;20809;-50
2022/06/25 04:41:57;;;;;;;3.57;1.87;;;;;25.50;100029.00;;;;2078847;28;20561;-50
2022/06/25 04:42:58;;;;;;;1.83;1.70;;;;;25.50;100038.00;;;;2079786;28;20283;-50
2022/06/25 04:44:01;;;;;;;3.07;1.80;;;;;25.50;100038.00;;;;2079141;28;20241;-50
2022/06/25 04:45:01;;;;;;;2.55;2.00;;;;;25.50;100037.00;;;;2073128;28;20650;-50
2022/06/25 04:46:02;;;;;;;2.10;1.63;;;;;25.50;100039.00;;;;2071501;28;20230;-50
2022/06/25 04:47:02;;;;;;;2.80;1.90;;;;;25.50;100035.00;;;;2071080;28;20222;-50
2022/06/25 04:48:03;;;;;;;3.30;1.90;;;;;25.50;100038.00;;;;2070106;28;20272;-50
2022/06/25 04:49:03;;;;;;;2.20;1.80;;;;;25.50;100031.00;;;;2075321;28;20222;-49
2022/06/25 04:50:05;;;;;;;5.50;1.80;;;;;25.50;100031.00;;;;2071790;28;20264;-50
2022/06/25 04:51:05;;;;;;;3.10;1.50;;;;;25.50;100035.00;;;;2071731;28;20233;-50
2022/06/25 04:52:06;;;;;;;2.50;1.60;;;;;25.50;100037.00;;;;2071618;28;20210;-51
2022/06/25 04:53:06;;;;;;;3.30;1.60;;;;;25.50;100039.00;;;;2071670;28;20233;-50
2022/06/25 04:54:07;;;;;;;1.37;1.27;;;;;25.50;100039.00;;;;2075660;28;20217;-50
2022/06/25 04:55:07;;;;;;;3.23;1.80;;;;;25.50;100031.00;;;;2079852;28;20279;-50
2022/06/25 04:56:08;;;;;;;2.77;1.60;;;;;25.50;100042.00;;;;2079827;28;20221;-50
2022/06/25 04:57:08;;;;;;;1.70;1.57;;;;;25.50;100037.00;;;;2079927;28;20260;-51
2022/06/25 04:58:09;;;;;;;2.03;1.60;;;;;25.50;100038.00;;;;2079184;28;20210;-51
2022/06/25 04:59:09;;;;;;;2.93;1.47;;;;;25.50;100045.00;;;;2079975;28;20214;-51
2022/06/25 05:00:11;;;;;;;2.40;1.77;;;;;25.50;100043.00;;;;2074618;28;20462;-51
2022/06/25 05:01:11;;;;;;;2.65;1.70;;;;;25.50;100046.00;;;;2071892;28;20221;-51
2022/06/25 05:02:12;;;;;;;2.60;1.70;;;;;25.50;100034.00;;;;2079043;28;20221;-50
2022/06/25 05:03:12;;;;;;;2.33;1.70;;;;;25.50;100040.00;;;;2079671;28;20294;-50
2022/06/25 05:04:12;;;;;;;2.80;1.90;;;;;25.50;100035.00;;;;2079351;28;20214;-50
2022/06/25 05:05:13;;;;;;;2.73;1.70;;;;;25.50;100033.00;;;;2078926;28;20226;-50
2022/06/25 05:06:14;;;;;;;4.33;1.73;;;;;25.50;100035.00;;;;2079186;28;20735;-50
2022/06/25 05:07:14;;;;;;;2.33;1.80;;;;;25.60;100035.00;;;;2078678;28;20500;-50
2022/06/25 05:08:14;;;;;;;2.50;2.03;;;;;25.60;100035.00;;;;2078676;28;20245;-50
2022/06/25 05:09:15;;;;;;;1.70;1.47;;;;;25.60;100030.00;;;;2078523;28;20307;-50
2022/06/25 05:10:15;;;;;;;2.03;1.40;;;;;25.60;100044.00;;;;2078559;28;20210;-50